createdAt,value
2022-10-06T00:01:33.017Z,2.97
2022-10-06T00:04:20.873Z,2.00
2022-10-06T00:07:08.389Z,1.70
2022-10-06T00:09:56.094Z,2.08
2022-10-06T00:12:44.732Z,1.70
2022-10-06T00:15:33.028Z,1.92
2022-10-06T00:18:20.494Z,3.87
2022-10-06T00:21:08.392Z,1.27
2022-10-06T00:23:56.265Z,4.75
2022-10-06T00:26:43.500Z,2.73
2022-10-06T00:29:31.410Z,1.42
2022-10-06T00:32:19.230Z,1.05
2022-10-06T00:35:07.314Z,2.67
2022-10-06T00:37:55.555Z,1.42
2022-10-06T00:40:49.481Z,0.88
2022-10-06T00:43:37.302Z,1.30
2022-10-06T00:46:34.551Z,2.38
2022-10-06T00:49:26.477Z,1.67
2022-10-06T00:52:19.777Z,1.47
2022-10-06T00:55:11.118Z,1.53
2022-10-06T00:57:59.258Z,2.17
2022-10-06T01:00:48.334Z,1.30
2022-10-06T01:03:36.936Z,3.40
2022-10-06T01:06:24.976Z,1.13
2022-10-06T01:09:13.695Z,4.03
2022-10-06T01:12:02.790Z,1.57
2022-10-06T01:14:50.702Z,1.65
2022-10-06T01:17:44.102Z,1.20
2022-10-06T01:20:32.095Z,3.00
2022-10-06T01:23:19.798Z,1.47
2022-10-06T01:26:09.301Z,1.30
2022-10-06T01:28:56.944Z,1.23
2022-10-06T01:31:44.936Z,1.83
2022-10-06T01:34:32.959Z,1.83
2022-10-06T01:37:20.389Z,1.57
2022-10-06T01:40:08.581Z,1.43
2022-10-06T01:42:56.675Z,1.45
2022-10-06T01:45:44.379Z,2.27
2022-10-06T01:48:32.568Z,1.65
2022-10-06T01:51:20.723Z,2.92
2022-10-06T01:54:08.176Z,1.13
2022-10-06T01:56:55.656Z,2.47
2022-10-06T01:59:43.698Z,1.30
2022-10-06T02:02:32.257Z,1.92
2022-10-06T02:05:20.169Z,2.63
2022-10-06T02:08:09.565Z,1.25
2022-10-06T02:10:57.660Z,2.42
2022-10-06T02:13:45.576Z,1.10
2022-10-06T02:16:32.975Z,1.30
2022-10-06T02:19:20.452Z,1.10
2022-10-06T02:22:07.673Z,2.25
2022-10-06T02:24:55.409Z,1.27
2022-10-06T02:27:42.626Z,1.20
2022-10-06T02:30:30.275Z,1.27
2022-10-06T02:33:17.936Z,1.33
2022-10-06T02:36:07.071Z,1.17
2022-10-06T02:38:54.994Z,1.30
2022-10-06T02:41:42.254Z,1.30
2022-10-06T02:44:30.149Z,1.55
2022-10-06T02:47:18.087Z,1.15
2022-10-06T02:50:07.869Z,1.20
2022-10-06T02:52:55.355Z,1.33
2022-10-06T02:55:43.304Z,1.53
2022-10-06T02:58:31.713Z,1.65
2022-10-06T03:01:21.253Z,1.73
2022-10-06T03:04:08.661Z,2.13
2022-10-06T03:06:56.748Z,3.03
2022-10-06T03:09:44.650Z,1.60
2022-10-06T03:12:32.648Z,1.63
2022-10-06T03:15:21.355Z,1.47
2022-10-06T03:18:09.152Z,1.40
2022-10-06T03:21:00.200Z,1.37
2022-10-06T03:23:49.181Z,4.20
2022-10-06T03:26:40.889Z,1.20
2022-10-06T03:29:31.460Z,1.47
2022-10-06T03:32:19.206Z,3.07
2022-10-06T03:35:07.273Z,1.40
2022-10-06T03:37:55.293Z,3.03
2022-10-06T03:40:43.152Z,1.13
2022-10-06T03:43:30.730Z,5.00
2022-10-06T03:46:20.470Z,2.00
2022-10-06T03:49:08.678Z,1.53
2022-10-06T03:51:56.724Z,2.93
2022-10-06T03:54:44.375Z,1.17
2022-10-06T03:57:32.329Z,1.30
2022-10-06T04:00:20.366Z,1.30
2022-10-06T04:03:08.319Z,3.77
2022-10-06T04:05:57.065Z,3.63
2022-10-06T04:08:45.328Z,1.30
2022-10-06T04:11:34.054Z,3.10
2022-10-06T04:14:21.557Z,1.93
2022-10-06T04:17:09.216Z,8.03
2022-10-06T04:19:56.644Z,1.27
2022-10-06T04:22:44.127Z,4.37
2022-10-06T04:25:31.549Z,1.77
2022-10-06T04:28:19.516Z,1.33
2022-10-06T04:31:08.179Z,1.47
2022-10-06T04:33:57.306Z,1.70
2022-10-06T04:36:45.041Z,3.70
2022-10-06T04:39:32.458Z,2.00
2022-10-06T04:42:20.410Z,3.07
2022-10-06T04:45:08.653Z,2.77
2022-10-06T04:47:56.551Z,2.90
2022-10-06T04:50:43.979Z,2.83
2022-10-06T04:53:32.228Z,1.77
2022-10-06T04:56:20.842Z,3.40
2022-10-06T04:59:08.697Z,3.20
2022-10-06T05:01:56.673Z,1.20
2022-10-06T05:04:44.074Z,1.53
2022-10-06T05:07:31.940Z,2.13
2022-10-06T05:10:19.365Z,1.80
2022-10-06T05:13:08.416Z,3.87
2022-10-06T05:15:59.755Z,1.50
2022-10-06T05:18:47.116Z,2.27
2022-10-06T05:21:34.893Z,1.27
2022-10-06T05:24:22.712Z,2.97
2022-10-06T05:27:10.537Z,2.87
2022-10-06T05:29:57.845Z,3.07
2022-10-06T05:32:50.317Z,1.73
2022-10-06T05:35:38.149Z,1.40
2022-10-06T05:38:28.088Z,3.13
2022-10-06T05:41:20.181Z,1.60
2022-10-06T05:44:08.699Z,4.20
2022-10-06T05:46:56.114Z,1.23
2022-10-06T05:49:43.990Z,1.57
2022-10-06T05:52:31.504Z,5.90
2022-10-06T05:55:19.341Z,1.43
2022-10-06T05:58:06.786Z,3.43
2022-10-06T06:00:54.656Z,2.20
2022-10-06T06:03:43.504Z,1.37
2022-10-06T06:06:31.330Z,2.37
2022-10-06T06:09:20.654Z,4.07
2022-10-06T06:12:08.655Z,5.77
2022-10-06T06:15:14.703Z,1.87
2022-10-06T06:18:04.869Z,3.70
2022-10-06T06:20:56.553Z,3.07
2022-10-06T06:23:46.901Z,1.93
2022-10-06T06:26:37.148Z,4.13
2022-10-06T06:29:24.700Z,1.33
2022-10-06T06:32:12.241Z,1.83
2022-10-06T06:34:59.710Z,2.22
2022-10-06T06:37:49.230Z,2.83
2022-10-06T06:40:41.237Z,2.05
2022-10-06T06:43:29.695Z,1.17
2022-10-06T06:46:19.102Z,4.60
2022-10-06T06:49:07.558Z,1.77
2022-10-06T06:51:55.488Z,1.20
2022-10-06T06:54:42.752Z,7.88
2022-10-06T06:57:30.646Z,2.78
2022-10-06T07:00:18.133Z,1.88
2022-10-06T07:03:06.503Z,1.35
2022-10-06T07:05:53.974Z,1.30
2022-10-06T07:08:45.862Z,3.60
2022-10-06T07:11:34.296Z,1.02
2022-10-06T07:14:24.554Z,2.00
2022-10-06T07:17:30.586Z,2.45
2022-10-06T07:20:36.594Z,1.48
2022-10-06T07:23:43.121Z,3.15
2022-10-06T07:26:31.474Z,4.97
2022-10-06T07:29:19.908Z,2.22
2022-10-06T07:32:07.819Z,2.70
2022-10-06T07:34:55.830Z,1.90
2022-10-06T07:37:44.478Z,1.55
2022-10-06T07:40:33.041Z,2.72
2022-10-06T07:43:20.948Z,1.65
2022-10-06T07:46:12.135Z,2.72
2022-10-06T07:49:00.686Z,1.55
2022-10-06T07:51:48.092Z,2.00
2022-10-06T07:54:35.940Z,4.00
2022-10-06T07:57:23.259Z,2.45
2022-10-06T08:00:12.622Z,1.60
2022-10-06T08:03:00.387Z,2.42
2022-10-06T08:05:48.486Z,1.65
2022-10-06T08:08:39.134Z,3.92
2022-10-06T08:11:27.089Z,1.85
2022-10-06T08:14:15.563Z,2.15
2022-10-06T08:17:02.982Z,1.70
2022-10-06T08:19:50.915Z,1.40
2022-10-06T08:22:40.173Z,3.22
2022-10-06T08:25:28.126Z,2.33
2022-10-06T08:28:15.588Z,1.83
2022-10-06T08:31:13.134Z,2.47
2022-10-06T08:34:01.420Z,5.60
2022-10-06T08:37:02.397Z,2.17
2022-10-06T08:39:57.052Z,5.28
2022-10-06T08:42:48.881Z,1.95
2022-10-06T08:45:40.186Z,2.38
2022-10-06T08:48:29.936Z,5.07
2022-10-06T08:51:22.483Z,2.28
2022-10-06T08:54:14.667Z,1.67
2022-10-06T08:57:11.506Z,3.17
2022-10-06T08:59:59.197Z,1.90
2022-10-06T09:02:50.724Z,4.10
2022-10-06T09:05:38.156Z,2.28
2022-10-06T09:08:58.489Z,1.52
2022-10-06T09:11:51.810Z,1.80
2022-10-06T09:14:42.814Z,2.50
2022-10-06T09:17:40.268Z,1.60
2022-10-06T09:20:34.946Z,2.58
2022-10-06T09:23:42.777Z,3.60
2022-10-06T09:26:31.303Z,2.53
2022-10-06T09:29:19.234Z,5.88
2022-10-06T09:32:07.262Z,2.67
2022-10-06T09:35:00.037Z,3.08
2022-10-06T09:38:08.240Z,2.28
2022-10-06T09:40:57.097Z,2.40
2022-10-06T09:43:53.380Z,2.92
2022-10-06T09:46:41.801Z,2.38
2022-10-06T09:49:31.892Z,4.68
2022-10-06T09:52:19.336Z,2.15
2022-10-06T09:55:10.540Z,2.70
2022-10-06T09:57:58.144Z,2.75
2022-10-06T10:00:49.011Z,3.05
2022-10-06T10:04:15.535Z,2.28
2022-10-06T10:07:24.256Z,1.40
2022-10-06T10:10:32.214Z,2.58
2022-10-06T10:13:21.888Z,2.03
2022-10-06T10:16:16.785Z,2.42
2022-10-06T10:19:06.229Z,1.73
2022-10-06T10:21:56.656Z,2.65
2022-10-06T10:24:56.225Z,2.33
2022-10-06T10:27:56.191Z,1.92
2022-10-06T10:30:55.199Z,3.83
2022-10-06T10:34:12.429Z,2.83
2022-10-06T10:37:15.931Z,3.22
2022-10-06T10:40:21.685Z,3.05
2022-10-06T10:43:39.723Z,4.15
2022-10-06T10:46:35.011Z,2.72
2022-10-06T10:49:30.679Z,3.55
2022-10-06T10:52:20.869Z,2.22
2022-10-06T10:55:18.498Z,3.25
2022-10-06T10:58:14.702Z,3.53
2022-10-06T11:01:13.197Z,1.73
2022-10-06T11:04:02.653Z,2.55
2022-10-06T11:06:55.745Z,2.85
2022-10-06T11:09:56.035Z,3.83
2022-10-06T11:12:46.387Z,3.22
2022-10-06T11:15:34.273Z,2.75
2022-10-06T11:18:22.366Z,2.35
2022-10-06T11:21:13.297Z,3.75
2022-10-06T11:24:13.117Z,2.92
2022-10-06T11:27:08.319Z,2.50
2022-10-06T11:30:15.652Z,2.83
2022-10-06T11:33:03.518Z,4.22
2022-10-06T11:35:51.481Z,3.03
2022-10-06T11:38:41.929Z,3.85
2022-10-06T11:41:35.806Z,5.80
2022-10-06T11:44:35.049Z,3.28
2022-10-06T11:47:34.991Z,4.90
2022-10-06T11:50:33.469Z,3.30
2022-10-06T11:53:27.265Z,2.45
2022-10-06T11:56:17.753Z,3.90
2022-10-06T11:59:13.178Z,2.47
2022-10-06T12:02:01.318Z,3.78
2022-10-06T12:05:22.947Z,6.28
2022-10-06T12:08:16.768Z,3.75
2022-10-06T12:11:05.584Z,2.97
2022-10-06T12:15:06.567Z,4.32
2022-10-06T12:17:14.050Z,2.95
2022-10-06T12:20:13.046Z,3.97
2022-10-06T12:23:04.086Z,3.67
2022-10-06T12:25:54.678Z,2.33
2022-10-06T12:28:45.600Z,3.17
2022-10-06T12:31:45.009Z,2.30
2022-10-06T12:34:51.599Z,2.05
2022-10-06T12:37:42.250Z,2.45
2022-10-06T12:40:49.405Z,2.05
2022-10-06T12:44:09.941Z,2.85
2022-10-06T12:46:59.806Z,6.07
2022-10-06T12:49:50.300Z,2.35
2022-10-06T12:52:46.639Z,3.47
2022-10-06T12:55:49.533Z,2.78
2022-10-06T12:58:37.022Z,3.88
2022-10-06T13:01:25.277Z,2.60
2022-10-06T13:04:32.891Z,3.40
2022-10-06T13:07:20.737Z,3.95
2022-10-06T13:10:14.605Z,3.50
2022-10-06T13:13:02.926Z,2.53
2022-10-06T13:15:51.737Z,3.67
2022-10-06T13:18:39.677Z,4.60
2022-10-06T13:21:29.466Z,4.38
2022-10-06T13:24:21.485Z,4.88
2022-10-06T13:27:17.456Z,4.00
2022-10-06T13:30:12.768Z,3.75
2022-10-06T13:33:00.311Z,2.63
2022-10-06T13:35:50.712Z,3.33
2022-10-06T13:38:39.124Z,3.35
2022-10-06T13:41:31.199Z,5.60
2022-10-06T13:44:19.266Z,4.00
2022-10-06T13:47:08.888Z,4.45
2022-10-06T13:50:07.202Z,2.20
2022-10-06T13:52:54.666Z,2.20
2022-10-06T13:55:49.353Z,3.60
2022-10-06T13:58:37.221Z,2.67
2022-10-06T14:01:32.256Z,3.10
2022-10-06T14:04:19.703Z,3.67
2022-10-06T14:07:11.705Z,2.83
2022-10-06T14:09:58.951Z,5.72
2022-10-06T14:12:47.249Z,3.17
2022-10-06T14:15:47.015Z,2.42
2022-10-06T14:18:45.087Z,5.15
2022-10-06T14:21:45.372Z,2.88
2022-10-06T14:24:37.344Z,3.63
2022-10-06T14:27:25.423Z,4.97
2022-10-06T14:30:13.186Z,4.13
2022-10-06T14:33:00.431Z,3.75
2022-10-06T14:35:49.765Z,5.88
2022-10-06T14:38:37.181Z,3.00
2022-10-06T14:41:27.946Z,3.72
2022-10-06T14:44:16.512Z,2.65
2022-10-06T14:47:04.689Z,1.98
2022-10-06T14:49:52.870Z,4.20
2022-10-06T14:52:40.326Z,2.92
2022-10-06T14:55:30.235Z,2.65
2022-10-06T14:58:18.541Z,2.67
2022-10-06T15:01:07.848Z,2.65
2022-10-06T15:03:56.750Z,3.65
2022-10-06T15:07:03.122Z,2.63
2022-10-06T15:09:50.557Z,2.47
2022-10-06T15:12:38.514Z,2.67
2022-10-06T15:15:25.892Z,4.97
2022-10-06T15:18:14.594Z,2.42
2022-10-06T15:21:05.573Z,2.15
2022-10-06T15:23:57.125Z,4.38
2022-10-06T15:27:03.872Z,3.25
2022-10-06T15:29:51.742Z,2.63
2022-10-06T15:32:39.176Z,3.72
2022-10-06T15:35:27.020Z,2.22
2022-10-06T15:38:15.217Z,2.22
2022-10-06T15:41:04.362Z,3.53
2022-10-06T15:43:56.878Z,4.22
2022-10-06T15:46:45.594Z,2.60
2022-10-06T15:49:37.984Z,4.45
2022-10-06T15:52:25.827Z,2.90
2022-10-06T15:55:13.605Z,2.83
2022-10-06T15:58:01.647Z,4.45
2022-10-06T16:00:49.560Z,5.35
2022-10-06T16:03:41.285Z,5.63
2022-10-06T16:06:40.642Z,6.13
2022-10-06T16:09:29.505Z,4.32
2022-10-06T16:12:18.049Z,6.28
2022-10-06T16:15:06.206Z,2.70
2022-10-06T16:17:53.615Z,3.17
2022-10-06T16:20:41.734Z,4.30
2022-10-06T16:23:29.602Z,3.50
2022-10-06T16:26:17.004Z,3.70
2022-10-06T16:29:05.241Z,2.60
2022-10-06T16:31:53.185Z,3.92
2022-10-06T16:34:41.061Z,4.35
2022-10-06T16:37:28.505Z,4.57
2022-10-06T16:40:18.188Z,3.60
2022-10-06T16:43:05.402Z,4.80
2022-10-06T16:46:01.825Z,5.80
2022-10-06T16:48:50.764Z,5.63
2022-10-06T16:51:42.700Z,4.03
2022-10-06T16:54:30.156Z,4.13
2022-10-06T16:57:18.653Z,3.80
2022-10-06T17:00:06.461Z,4.53
2022-10-06T17:02:54.424Z,7.47
2022-10-06T17:05:41.859Z,5.15
2022-10-06T17:08:29.697Z,3.88
2022-10-06T17:11:21.100Z,2.95
2022-10-06T17:14:09.183Z,3.90
2022-10-06T17:16:57.507Z,3.70
2022-10-06T17:19:45.001Z,7.32
2022-10-06T17:22:32.844Z,5.38
2022-10-06T17:25:20.249Z,2.88
2022-10-06T17:28:08.146Z,5.57
2022-10-06T17:30:59.263Z,7.10
2022-10-06T17:33:47.560Z,5.68
2022-10-06T17:36:37.977Z,5.80
2022-10-06T17:39:25.632Z,5.10
2022-10-06T17:42:13.705Z,5.75
2022-10-06T17:45:02.546Z,6.93
2022-10-06T17:47:51.672Z,6.97
2022-10-06T17:50:39.666Z,5.00
2022-10-06T17:53:27.264Z,6.30
2022-10-06T17:56:16.107Z,5.25
2022-10-06T17:59:04.955Z,5.65
2022-10-06T18:01:56.607Z,5.13
2022-10-06T18:04:44.822Z,5.05
2022-10-06T18:07:32.651Z,6.53
2022-10-06T18:10:38.745Z,7.38
2022-10-06T18:13:26.611Z,6.43
2022-10-06T18:16:15.189Z,8.98
2022-10-06T18:19:04.573Z,5.97
2022-10-06T18:21:52.247Z,9.48
2022-10-06T18:24:40.488Z,5.30
2022-10-06T18:27:28.047Z,5.30
2022-10-06T18:30:15.723Z,6.28
2022-10-06T18:36:14.335Z,9.85
2022-10-06T18:39:03.563Z,6.82
2022-10-06T18:41:52.788Z,7.05
2022-10-06T18:44:58.658Z,7.07
2022-10-06T18:48:04.844Z,8.52
2022-10-06T18:51:04.308Z,8.98
2022-10-06T18:53:55.148Z,7.65
2022-10-06T18:56:43.269Z,6.18
2022-10-06T18:59:31.766Z,8.15
2022-10-06T19:02:19.459Z,6.55
2022-10-06T19:05:06.934Z,7.20
2022-10-06T19:07:54.937Z,5.82
2022-10-06T19:11:02.580Z,6.90
2022-10-06T19:13:52.599Z,6.70
2022-10-06T19:16:40.108Z,5.68
2022-10-06T19:19:29.020Z,7.38
2022-10-06T19:22:16.434Z,5.05
2022-10-06T19:25:04.315Z,4.80
2022-10-06T19:27:51.960Z,7.68
2022-10-06T19:30:39.419Z,6.88
2022-10-06T19:33:27.419Z,7.20
2022-10-06T19:36:16.892Z,6.25
2022-10-06T19:39:09.800Z,5.70
2022-10-06T19:42:16.553Z,6.90
2022-10-06T19:45:04.630Z,8.40
2022-10-06T19:47:52.100Z,6.13
2022-10-06T19:50:39.588Z,5.30
2022-10-06T19:53:27.041Z,6.10
2022-10-06T19:56:14.252Z,5.20
2022-10-06T19:59:02.111Z,5.72
2022-10-06T20:01:50.151Z,6.25
2022-10-06T20:04:38.369Z,7.13
2022-10-06T20:07:27.835Z,6.30
2022-10-06T20:10:16.306Z,7.07
2022-10-06T20:13:04.100Z,11.05
2022-10-06T20:15:52.491Z,5.75
2022-10-06T20:18:41.109Z,5.18
2022-10-06T20:21:33.843Z,6.05
2022-10-06T20:24:26.147Z,7.30
2022-10-06T20:27:14.056Z,7.35
2022-10-06T20:30:01.887Z,7.05
2022-10-06T20:32:49.105Z,7.05
2022-10-06T20:35:36.975Z,8.00
2022-10-06T20:38:44.353Z,6.55
2022-10-06T20:41:33.028Z,5.85
2022-10-06T20:44:20.640Z,5.93
2022-10-06T20:47:11.293Z,5.70
2022-10-06T20:49:58.516Z,5.50
2022-10-06T20:52:47.362Z,7.53
2022-10-06T20:55:35.601Z,8.32
2022-10-06T20:58:25.092Z,9.18
2022-10-06T21:01:14.103Z,6.68
2022-10-06T21:04:01.995Z,7.28
2022-10-06T21:06:51.389Z,6.15
2022-10-06T21:09:38.899Z,11.23
2022-10-06T21:12:27.141Z,7.60
2022-10-06T21:15:14.645Z,11.25
2022-10-06T21:18:02.521Z,13.43
2022-10-06T21:20:57.789Z,24.08
2022-10-06T21:23:48.113Z,27.60
2022-10-06T21:26:36.182Z,12.70
2022-10-06T21:29:24.095Z,6.50
2022-10-06T21:32:11.603Z,7.97
2022-10-06T21:34:59.620Z,7.28
2022-10-06T21:37:47.645Z,7.95
2022-10-06T21:40:38.641Z,9.68
2022-10-06T21:43:28.783Z,7.85
2022-10-06T21:46:28.108Z,5.75
2022-10-06T21:49:17.880Z,6.25
2022-10-06T21:52:05.572Z,5.35
2022-10-06T21:54:52.989Z,5.47
2022-10-06T21:57:41.199Z,5.95
2022-10-06T22:00:28.746Z,6.47
2022-10-06T22:03:16.707Z,5.38
2022-10-06T22:06:08.485Z,7.35
2022-10-06T22:08:56.506Z,4.28
2022-10-06T22:11:44.339Z,4.80
2022-10-06T22:14:32.345Z,6.70
2022-10-06T22:17:20.252Z,6.90
2022-10-06T22:20:08.154Z,7.45
2022-10-06T22:22:56.156Z,4.82
2022-10-06T22:25:44.199Z,5.22
2022-10-06T22:28:32.161Z,3.55
2022-10-06T22:31:25.559Z,6.40
2022-10-06T22:34:14.993Z,8.75
2022-10-06T22:37:02.486Z,6.47
2022-10-06T22:39:50.418Z,5.63
2022-10-06T22:42:37.911Z,3.92
2022-10-06T22:45:25.810Z,4.55
2022-10-06T22:48:13.305Z,4.07
2022-10-06T22:51:01.473Z,3.38
2022-10-06T22:53:57.317Z,5.63
2022-10-06T22:56:45.985Z,7.00
2022-10-06T22:59:33.484Z,4.05
2022-10-06T23:02:21.469Z,4.07
2022-10-06T23:05:09.032Z,3.10
2022-10-06T23:07:56.915Z,4.63
2022-10-06T23:10:44.877Z,7.80
2022-10-06T23:13:32.832Z,2.78
2022-10-06T23:16:21.323Z,2.67
2022-10-06T23:19:09.434Z,5.25
2022-10-06T23:21:57.349Z,3.50
2022-10-06T23:24:45.347Z,3.90
2022-10-06T23:27:32.885Z,2.88
2022-10-06T23:30:21.101Z,8.65
2022-10-06T23:33:08.582Z,3.45
2022-10-06T23:35:57.574Z,3.13
2022-10-06T23:38:45.608Z,3.75
2022-10-06T23:41:33.411Z,3.33
2022-10-06T23:44:20.922Z,2.40
2022-10-06T23:47:08.906Z,3.70
2022-10-06T23:49:56.844Z,3.28
2022-10-06T23:52:44.862Z,2.92
2022-10-06T23:55:32.826Z,3.70
2022-10-06T23:58:20.835Z,2.42
